KAEL

Details ICAO KAEL
Name ALBERT LEA MUNI
Region United States
Timezone America/Chicago (UTC-5.0)
Plans Departing 1
Arriving 6
Stats Elevation 1,259 ft / 384 m (AMSL)
Location 43.681576° -93.367268°
Runways 2
Magnetic Variation 0.392° E
Sunrise 2018-05-20 10:44:44 UTC / 2018-05-20 05:44:44 Local
Sunset 2018-05-21 01:38:07 UTC / 2018-05-20 20:38:07 Local
Advertisement - Login to hide

Runways

ID Width Length Bearing (true) Bearing (mag) Surface Threshold Offset Overrun Length
04 75 ft / 23 m 2,897 ft / 883 m 46.45° 46.06° Asphalt 0 ft / 0 m 0 ft / 0 m
16 100 ft / 30 m 4,505 ft / 1,373 m 168.23° 167.84° Asphalt 0 ft / 0 m 0 ft / 0 m
22 75 ft / 23 m 2,897 ft / 883 m 226.45° 226.06° Asphalt 0 ft / 0 m 0 ft / 0 m
34 100 ft / 30 m 4,505 ft / 1,373 m 348.23° 347.84° Asphalt 0 ft / 0 m 0 ft / 0 m

Map

Weather


0- 5 10 15 20 25 30 35+ Temperature / ° C

Clouds and Precipitation
Forecast for 2018-05-20 18:00 UTC. Updated 4 hours ago

Ground ~20,000 ft ~40,000 ft Winds

METAR

KAEL 202136Z AUTO 12009KT 10SM BKN016 OVC037 14/08 A3016 RMK AO2

TAF

Not found

Frequencies

Unicom 123.00 MHz CTAF/UNICOM
Approach 119.80 MHz ROCHESTER APP/DEP
Warning: Do not use this data for real-world aviation or navigation. No guarantee of current accuracy is given.